Time;durP1;ratioP1;P1;durP2;ratioP2;P2;SDS_P1;SDS_P2;PMS_P1;PMS_P2;Temp;Humidity;BMP_temperature;BMP_pressure;BME280_temperature;BME280_humidity;BME280_pressure;Samples;Min_cycle;Max_cycle;Signal;HPM_P1;HPM_P2
2024/02/18 00:00:31;;;;;;;0.40;0.40;;;;;;;;;;5019245;28;20459;-84
2024/02/18 00:02:58;;;;;;;0.70;0.70;;;;;;;;;;5025492;28;20484;-83
2024/02/18 00:05:24;;;;;;;2.13;2.03;;;;;;;;;;5023278;28;20545;-84
2024/02/18 00:07:52;;;;;;;0.63;0.63;;;;;;;;;;5019209;28;20554;-83
2024/02/18 00:10:18;;;;;;;0.53;0.53;;;;;;;;;;5014444;28;20527;-83
2024/02/18 00:12:45;;;;;;;0.50;0.50;;;;;;;;;;5026592;28;20486;-85
2024/02/18 00:15:11;;;;;;;0.90;0.90;;;;;;;;;;5026090;28;20473;-85
2024/02/18 00:17:38;;;;;;;0.60;0.60;;;;;;;;;;5028451;28;20970;-84
2024/02/18 00:20:04;;;;;;;1.17;1.17;;;;;;;;;;5027354;28;20488;-82
2024/02/18 00:22:31;;;;;;;3.37;3.07;;;;;;;;;;5016728;28;20686;-84
2024/02/18 00:24:59;;;;;;;0.50;0.50;;;;;;;;;;5031324;28;20478;-82
2024/02/18 00:27:25;;;;;;;0.70;0.70;;;;;;;;;;5034330;28;21416;-84
2024/02/18 00:29:51;;;;;;;0.70;0.70;;;;;;;;;;5014341;28;20555;-84
2024/02/18 00:32:18;;;;;;;1.63;1.53;;;;;;;;;;5026310;28;20524;-84
2024/02/18 00:34:44;;;;;;;0.70;0.70;;;;;;;;;;5018822;28;20490;-82
2024/02/18 00:37:10;;;;;;;19.47;2.10;;;;;;;;;;5024341;28;20917;-83
2024/02/18 00:39:37;;;;;;;1.27;1.27;;;;;;;;;;5017045;28;20490;-83
2024/02/18 00:42:06;;;;;;;1.00;1.00;;;;;;;;;;5021708;28;20578;-84
2024/02/18 00:44:32;;;;;;;1.40;1.37;;;;;;;;;;5020371;28;20439;-84
2024/02/18 00:46:58;;;;;;;0.60;0.60;;;;;;;;;;5025843;28;20534;-83
2024/02/18 00:49:25;;;;;;;1.10;1.10;;;;;;;;;;5020967;28;20535;-84
2024/02/18 00:51:50;;;;;;;0.80;0.80;;;;;;;;;;5028869;28;20539;-84
2024/02/18 00:54:16;;;;;;;0.90;0.90;;;;;;;;;;5020088;28;20497;-84
2024/02/18 00:56:43;;;;;;;0.70;0.70;;;;;;;;;;5024547;28;20272;-84
2024/02/18 00:59:11;;;;;;;2.03;1.93;;;;;;;;;;5026723;28;20753;-82
2024/02/18 01:01:37;;;;;;;0.80;0.70;;;;;;;;;;5018570;28;20530;-83
2024/02/18 01:04:04;;;;;;;0.60;0.60;;;;;;;;;;5030123;28;20450;-80
2024/02/18 01:06:31;;;;;;;0.50;0.50;;;;;;;;;;5033879;28;20462;-82
2024/02/18 01:08:57;;;;;;;0.60;0.60;;;;;;;;;;5020508;28;20536;-84
2024/02/18 01:11:23;;;;;;;0.77;0.77;;;;;;;;;;5025465;28;20513;-83
2024/02/18 01:13:50;;;;;;;0.60;0.60;;;;;;;;;;5022430;28;20535;-85
2024/02/18 01:16:17;;;;;;;1.73;1.63;;;;;;;;;;5023878;28;20482;-85
2024/02/18 01:18:45;;;;;;;0.70;0.70;;;;;;;;;;5020095;28;20479;-84
2024/02/18 01:21:11;;;;;;;0.50;0.50;;;;;;;;;;5026630;28;20458;-83
2024/02/18 01:23:38;;;;;;;0.70;0.70;;;;;;;;;;5021759;28;20933;-82
2024/02/18 01:26:04;;;;;;;5.97;3.53;;;;;;;;;;5020270;28;20514;-84
2024/02/18 01:28:31;;;;;;;0.67;0.67;;;;;;;;;;5018884;28;20562;-83
2024/02/18 01:30:57;;;;;;;2.33;2.20;;;;;;;;;;5024577;28;20470;-81
2024/02/18 01:33:25;;;;;;;0.50;0.50;;;;;;;;;;5022766;28;20577;-83
2024/02/18 01:35:51;;;;;;;0.60;0.60;;;;;;;;;;5019106;28;20463;-83
2024/02/18 01:38:18;;;;;;;0.87;0.87;;;;;;;;;;5023606;28;20518;-82
2024/02/18 01:40:44;;;;;;;1.13;1.13;;;;;;;;;;5016286;28;20475;-82
2024/02/18 01:43:12;;;;;;;0.70;0.70;;;;;;;;;;5015676;28;20546;-83
2024/02/18 01:45:41;;;;;;;0.70;0.70;;;;;;;;;;5019115;28;20522;-83
2024/02/18 01:48:07;;;;;;;0.70;0.70;;;;;;;;;;5021499;28;20508;-82
2024/02/18 01:50:35;;;;;;;1.30;1.30;;;;;;;;;;5018985;28;20497;-83
2024/02/18 01:53:02;;;;;;;2.60;2.40;;;;;;;;;;5020267;28;20497;-80
2024/02/18 01:55:29;;;;;;;1.10;1.10;;;;;;;;;;5022744;28;20459;-82
2024/02/18 01:57:55;;;;;;;1.10;1.10;;;;;;;;;;5015400;28;20451;-82
2024/02/18 02:00:22;;;;;;;1.07;1.07;;;;;;;;;;5018647;28;20451;-81
2024/02/18 02:02:49;;;;;;;1.17;1.17;;;;;;;;;;5029550;28;21073;-80
2024/02/18 02:05:16;;;;;;;2.27;2.17;;;;;;;;;;5019724;28;20497;-81
2024/02/18 02:07:44;;;;;;;1.10;1.10;;;;;;;;;;5023696;28;20493;-81
2024/02/18 02:10:12;;;;;;;1.63;1.60;;;;;;;;;;5028173;28;20447;-81
2024/02/18 02:12:38;;;;;;;2.20;2.10;;;;;;;;;;5021897;28;20523;-82
2024/02/18 02:15:05;;;;;;;1.70;1.60;;;;;;;;;;5019705;28;20533;-81
2024/02/18 02:17:33;;;;;;;1.30;1.30;;;;;;;;;;5033223;28;20485;-83
2024/02/18 02:19:59;;;;;;;1.67;1.67;;;;;;;;;;5021824;28;21314;-84
2024/02/18 02:22:26;;;;;;;1.80;1.80;;;;;;;;;;5014213;28;20454;-83
2024/02/18 02:24:54;;;;;;;1.47;1.47;;;;;;;;;;5025435;28;20903;-83
2024/02/18 02:27:25;;;;;;;1.90;1.80;;;;;;;;;;5026133;28;20493;-82
2024/02/18 02:29:53;;;;;;;1.50;1.50;;;;;;;;;;5029866;28;20498;-82
2024/02/18 02:32:19;;;;;;;1.73;1.63;;;;;;;;;;5021879;28;20454;-83
2024/02/18 02:34:46;;;;;;;2.13;2.03;;;;;;;;;;5023352;28;20460;-81
2024/02/18 02:37:13;;;;;;;1.50;1.50;;;;;;;;;;5024206;28;20451;-84
2024/02/18 02:39:39;;;;;;;1.63;1.63;;;;;;;;;;5033228;28;20521;-83
2024/02/18 02:42:06;;;;;;;1.53;1.53;;;;;;;;;;5019340;28;20482;-84
2024/02/18 02:44:32;;;;;;;2.20;2.10;;;;;;;;;;5023217;28;21331;-83
2024/02/18 02:47:00;;;;;;;1.70;1.70;;;;;;;;;;5033334;28;20525;-84
2024/02/18 02:49:27;;;;;;;2.07;1.97;;;;;;;;;;5024434;28;20501;-83
2024/02/18 02:51:53;;;;;;;2.20;2.10;;;;;;;;;;5023018;28;20570;-83
2024/02/18 02:54:19;;;;;;;1.90;1.90;;;;;;;;;;5021880;28;20541;-83
2024/02/18 02:56:46;;;;;;;2.20;2.10;;;;;;;;;;5023215;28;20487;-83
2024/02/18 02:59:12;;;;;;;2.10;2.00;;;;;;;;;;5014090;28;20481;-82
2024/02/18 03:01:39;;;;;;;3.40;3.20;;;;;;;;;;5027811;28;20521;-82
2024/02/18 03:04:06;;;;;;;2.20;2.10;;;;;;;;;;5022128;28;20518;-83
2024/02/18 03:06:33;;;;;;;2.50;2.40;;;;;;;;;;5023325;28;20479;-86
2024/02/18 03:08:59;;;;;;;2.10;2.00;;;;;;;;;;5028932;28;20577;-83
2024/02/18 03:11:25;;;;;;;2.40;2.30;;;;;;;;;;5023829;28;20475;-84
2024/02/18 03:13:52;;;;;;;2.43;2.33;;;;;;;;;;5018626;28;20451;-83
2024/02/18 03:16:18;;;;;;;2.80;2.70;;;;;;;;;;5024625;28;20489;-84
2024/02/18 03:18:45;;;;;;;2.37;2.27;;;;;;;;;;5021964;28;20482;-84
2024/02/18 03:21:13;;;;;;;2.70;2.60;;;;;;;;;;5022193;28;20491;-84
2024/02/18 03:23:39;;;;;;;2.30;2.20;;;;;;;;;;5022383;28;20455;-83
2024/02/18 03:26:06;;;;;;;2.40;2.30;;;;;;;;;;5024130;28;20486;-84
2024/02/18 03:28:32;;;;;;;2.20;2.10;;;;;;;;;;5012601;28;20542;-84
2024/02/18 03:30:58;;;;;;;2.60;2.50;;;;;;;;;;5027250;28;20475;-83
2024/02/18 03:33:25;;;;;;;2.00;1.90;;;;;;;;;;5017548;28;20461;-82
2024/02/18 03:35:51;;;;;;;2.23;2.13;;;;;;;;;;5026195;28;20496;-83
2024/02/18 03:38:19;;;;;;;2.20;2.10;;;;;;;;;;5020455;28;20502;-83
2024/02/18 03:40:46;;;;;;;10.03;9.27;;;;;;;;;;5022595;28;20559;-84
2024/02/18 03:43:13;;;;;;;2.10;2.00;;;;;;;;;;5022646;28;20946;-83
2024/02/18 03:45:39;;;;;;;2.17;2.07;;;;;;;;;;5020926;28;20496;-84
2024/02/18 03:48:06;;;;;;;2.30;2.20;;;;;;;;;;5021455;28;20483;-83
2024/02/18 03:50:33;;;;;;;2.40;2.30;;;;;;;;;;5023959;28;20482;-83
2024/02/18 03:52:59;;;;;;;2.50;2.40;;;;;;;;;;5028623;28;20478;-84
2024/02/18 03:55:27;;;;;;;2.70;2.60;;;;;;;;;;5013613;28;20523;-84
2024/02/18 03:57:53;;;;;;;2.60;2.50;;;;;;;;;;5026356;28;20481;-84
2024/02/18 04:00:19;;;;;;;2.20;2.10;;;;;;;;;;5020082;28;20525;-83
2024/02/18 04:02:46;;;;;;;2.30;2.20;;;;;;;;;;5023848;28;20458;-83
2024/02/18 04:05:13;;;;;;;3.30;3.20;;;;;;;;;;5027486;28;20462;-82
2024/02/18 04:07:39;;;;;;;2.67;2.57;;;;;;;;;;5027096;28;20458;-82
2024/02/18 04:10:06;;;;;;;2.40;2.30;;;;;;;;;;5026927;28;20573;-83
2024/02/18 04:12:34;;;;;;;2.53;2.43;;;;;;;;;;5027061;28;20489;-82
2024/02/18 04:15:00;;;;;;;2.40;2.30;;;;;;;;;;5021595;28;20469;-83
2024/02/18 04:17:27;;;;;;;2.30;2.20;;;;;;;;;;5020413;28;20541;-84
2024/02/18 04:19:53;;;;;;;2.30;2.20;;;;;;;;;;5020212;28;20458;-82
2024/02/18 04:22:19;;;;;;;2.30;2.20;;;;;;;;;;5028009;28;20542;-82
2024/02/18 04:24:46;;;;;;;2.10;2.00;;;;;;;;;;5020519;28;20514;-82
2024/02/18 04:27:13;;;;;;;3.33;3.23;;;;;;;;;;5023034;28;20474;-83
2024/02/18 04:29:41;;;;;;;2.30;2.20;;;;;;;;;;5023901;28;20498;-83
2024/02/18 04:32:08;;;;;;;2.40;2.30;;;;;;;;;;5013309;28;20521;-83
2024/02/18 04:34:34;;;;;;;2.20;2.10;;;;;;;;;;5016540;28;20483;-82
2024/02/18 04:37:00;;;;;;;2.40;2.30;;;;;;;;;;5007875;28;20543;-83
2024/02/18 04:39:27;;;;;;;2.67;2.57;;;;;;;;;;5015772;28;21027;-84
2024/02/18 04:41:53;;;;;;;2.63;2.53;;;;;;;;;;5022762;28;20474;-84
2024/02/18 04:44:19;;;;;;;2.30;2.20;;;;;;;;;;5032113;28;20541;-83
2024/02/18 04:46:48;;;;;;;2.40;2.30;;;;;;;;;;5026777;28;20871;-84
2024/02/18 04:49:15;;;;;;;5.83;5.53;;;;;;;;;;5020376;28;20493;-83
2024/02/18 04:51:41;;;;;;;2.57;2.47;;;;;;;;;;5022672;28;20975;-85
2024/02/18 04:54:07;;;;;;;2.30;2.20;;;;;;;;;;5026660;28;20530;-84
2024/02/18 04:56:34;;;;;;;2.33;2.23;;;;;;;;;;5018829;28;20566;-84
2024/02/18 04:59:00;;;;;;;2.13;2.03;;;;;;;;;;5022498;28;20439;-83
2024/02/18 05:01:26;;;;;;;2.37;2.27;;;;;;;;;;5022589;28;20528;-83
2024/02/18 05:03:55;;;;;;;2.20;2.10;;;;;;;;;;5021374;28;20558;-84
2024/02/18 05:06:21;;;;;;;2.27;2.17;;;;;;;;;;5021427;28;20450;-82
2024/02/18 05:08:47;;;;;;;2.20;2.10;;;;;;;;;;5021673;28;20546;-83
2024/02/18 05:11:14;;;;;;;2.27;2.17;;;;;;;;;;5026171;28;20492;-82
2024/02/18 05:13:40;;;;;;;2.00;1.90;;;;;;;;;;5026750;28;20469;-83
2024/02/18 05:16:08;;;;;;;2.43;2.33;;;;;;;;;;5023898;28;20557;-82
2024/02/18 05:18:34;;;;;;;2.40;2.30;;;;;;;;;;5027820;28;20451;-84
2024/02/18 05:21:03;;;;;;;2.20;2.10;;;;;;;;;;5020726;28;20494;-83
2024/02/18 05:23:30;;;;;;;2.10;2.00;;;;;;;;;;5025976;28;20974;-84
2024/02/18 05:25:56;;;;;;;2.40;2.30;;;;;;;;;;5012296;28;20536;-84
2024/02/18 05:28:23;;;;;;;2.43;2.33;;;;;;;;;;5023455;28;20482;-84
2024/02/18 05:30:49;;;;;;;2.20;2.10;;;;;;;;;;5025680;28;20458;-82
2024/02/18 05:33:16;;;;;;;2.40;2.30;;;;;;;;;;5032121;28;20767;-83
2024/02/18 05:35:42;;;;;;;2.53;2.43;;;;;;;;;;5023955;28;20462;-83
2024/02/18 05:38:10;;;;;;;2.60;2.50;;;;;;;;;;5014849;28;20473;-83
2024/02/18 05:40:37;;;;;;;2.60;2.50;;;;;;;;;;5017926;28;20464;-82
2024/02/18 05:43:03;;;;;;;2.47;2.37;;;;;;;;;;5026941;28;20549;-82
2024/02/18 05:45:32;;;;;;;3.70;3.60;;;;;;;;;;5027987;28;20514;-84
2024/02/18 05:47:58;;;;;;;2.40;2.30;;;;;;;;;;5022702;28;20465;-83
2024/02/18 05:50:25;;;;;;;2.40;2.30;;;;;;;;;;5019523;28;20525;-83
2024/02/18 05:52:51;;;;;;;3.27;3.07;;;;;;;;;;5022344;28;20587;-83
2024/02/18 05:55:19;;;;;;;2.40;2.30;;;;;;;;;;5023792;28;21055;-85
2024/02/18 05:57:45;;;;;;;2.90;2.80;;;;;;;;;;5018193;28;20497;-81
2024/02/18 06:00:12;;;;;;;3.90;3.70;;;;;;;;;;5027868;28;20889;-84
2024/02/18 06:02:39;;;;;;;2.33;2.23;;;;;;;;;;5029234;28;20489;-83
2024/02/18 06:05:06;;;;;;;2.47;2.37;;;;;;;;;;5023188;28;20493;-83
2024/02/18 06:07:33;;;;;;;2.30;2.20;;;;;;;;;;5029430;28;20987;-84
2024/02/18 06:09:59;;;;;;;2.50;2.40;;;;;;;;;;5031933;28;20546;-84
2024/02/18 06:12:27;;;;;;;4.97;4.77;;;;;;;;;;5020668;28;20493;-85
2024/02/18 06:14:54;;;;;;;2.57;2.47;;;;;;;;;;5021124;28;20474;-82
2024/02/18 06:17:20;;;;;;;2.70;2.60;;;;;;;;;;5035044;28;20490;-83
2024/02/18 06:19:47;;;;;;;5.00;4.80;;;;;;;;;;5024578;28;20909;-84
2024/02/18 06:22:13;;;;;;;2.00;1.90;;;;;;;;;;5025782;28;20501;-82
2024/02/18 06:24:39;;;;;;;2.27;2.17;;;;;;;;;;5027966;28;20557;-82
2024/02/18 06:27:06;;;;;;;3.27;3.17;;;;;;;;;;5019646;28;20526;-83
2024/02/18 06:29:34;;;;;;;2.93;2.83;;;;;;;;;;5026609;28;20920;-83
2024/02/18 06:32:00;;;;;;;2.73;2.63;;;;;;;;;;5031221;28;20486;-81
2024/02/18 06:34:26;;;;;;;3.00;2.90;;;;;;;;;;5021936;28;20510;-81
2024/02/18 06:36:53;;;;;;;2.97;2.87;;;;;;;;;;5020927;28;20494;-81
2024/02/18 06:39:19;;;;;;;2.77;2.67;;;;;;;;;;5035515;28;21307;-82
2024/02/18 06:41:48;;;;;;;2.73;2.63;;;;;;;;;;5021540;28;20486;-87
2024/02/18 06:44:14;;;;;;;2.70;2.60;;;;;;;;;;5018547;28;20523;-82
2024/02/18 06:46:43;;;;;;;2.70;2.60;;;;;;;;;;5026821;28;20912;-81
2024/02/18 06:49:09;;;;;;;3.27;3.17;;;;;;;;;;5023504;28;20510;-81
2024/02/18 06:51:35;;;;;;;2.80;2.70;;;;;;;;;;5019762;28;20482;-81
2024/02/18 06:54:02;;;;;;;3.67;3.57;;;;;;;;;;5021011;28;20518;-79
2024/02/18 06:56:28;;;;;;;3.10;3.00;;;;;;;;;;5021104;28;20451;-80
2024/02/18 06:58:55;;;;;;;2.83;2.73;;;;;;;;;;5021106;28;21036;-81
2024/02/18 07:01:21;;;;;;;2.60;2.50;;;;;;;;;;5020545;28;20506;-80
2024/02/18 07:03:49;;;;;;;2.90;2.80;;;;;;;;;;5026481;28;20484;-80
2024/02/18 07:06:17;;;;;;;2.63;2.53;;;;;;;;;;5013153;28;20527;-82
2024/02/18 07:08:44;;;;;;;2.80;2.70;;;;;;;;;;5024620;28;21008;-82
2024/02/18 07:11:10;;;;;;;2.90;2.80;;;;;;;;;;5023541;28;20474;-82
2024/02/18 07:13:37;;;;;;;3.00;2.90;;;;;;;;;;5020620;28;20537;-81
2024/02/18 07:16:03;;;;;;;2.60;2.50;;;;;;;;;;5026122;28;20577;-82
2024/02/18 07:18:30;;;;;;;2.80;2.70;;;;;;;;;;5020371;28;20458;-82
2024/02/18 07:20:58;;;;;;;3.27;3.17;;;;;;;;;;5019457;28;20508;-82
2024/02/18 07:23:24;;;;;;;2.70;2.60;;;;;;;;;;5013651;28;20450;-82
2024/02/18 07:25:51;;;;;;;2.80;2.70;;;;;;;;;;5020140;28;20537;-81
2024/02/18 07:28:17;;;;;;;2.80;2.70;;;;;;;;;;5017811;28;20470;-83
2024/02/18 07:30:43;;;;;;;3.67;3.57;;;;;;;;;;5026817;28;20547;-84
2024/02/18 07:33:10;;;;;;;2.80;2.70;;;;;;;;;;5021659;28;20501;-84
2024/02/18 07:35:37;;;;;;;4.27;4.17;;;;;;;;;;5027621;28;20514;-82
2024/02/18 07:38:04;;;;;;;2.90;2.80;;;;;;;;;;5019634;28;20526;-82
2024/02/18 07:40:31;;;;;;;3.03;2.93;;;;;;;;;;5020767;28;20477;-82
2024/02/18 07:42:57;;;;;;;2.80;2.70;;;;;;;;;;5019848;28;20518;-82
2024/02/18 07:45:24;;;;;;;2.90;2.80;;;;;;;;;;5025940;28;20453;-83
2024/02/18 07:47:50;;;;;;;3.10;3.00;;;;;;;;;;5020188;28;20503;-81
2024/02/18 07:50:16;;;;;;;2.70;2.60;;;;;;;;;;5021507;28;20494;-82
2024/02/18 07:52:43;;;;;;;3.60;3.50;;;;;;;;;;5008350;28;20522;-81
2024/02/18 07:55:10;;;;;;;3.20;3.10;;;;;;;;;;5015720;28;20922;-83
2024/02/18 07:57:39;;;;;;;3.50;3.40;;;;;;;;;;5017370;28;20522;-83
2024/02/18 08:00:06;;;;;;;3.30;3.20;;;;;;;;;;5021625;28;20538;-82
2024/02/18 08:02:32;;;;;;;3.83;3.73;;;;;;;;;;5020091;28;20518;-81
2024/02/18 08:04:59;;;;;;;3.27;3.17;;;;;;;;;;5020894;28;20462;-81
2024/02/18 08:07:25;;;;;;;3.60;3.50;;;;;;;;;;5019205;28;20549;-81
2024/02/18 08:09:51;;;;;;;3.33;3.23;;;;;;;;;;5015687;28;20555;-82
2024/02/18 08:12:19;;;;;;;5.13;4.90;;;;;;;;;;5025765;28;20493;-82
2024/02/18 08:14:46;;;;;;;3.90;3.80;;;;;;;;;;5019239;28;20569;-81
2024/02/18 08:17:12;;;;;;;4.00;3.90;;;;;;;;;;5017026;28;20516;-81
2024/02/18 08:19:38;;;;;;;3.63;3.53;;;;;;;;;;5019906;28;20522;-80
2024/02/18 08:22:05;;;;;;;2.70;2.60;;;;;;;;;;5019266;28;20482;-81
2024/02/18 08:24:32;;;;;;;2.93;2.83;;;;;;;;;;5020418;28;20446;-81
2024/02/18 08:26:58;;;;;;;2.97;2.87;;;;;;;;;;5020027;28;20446;-81
2024/02/18 08:29:26;;;;;;;4.80;4.57;;;;;;;;;;5020107;28;20439;-82
2024/02/18 08:31:53;;;;;;;3.73;3.63;;;;;;;;;;5015052;28;20487;-81
2024/02/18 08:34:20;;;;;;;3.30;3.20;;;;;;;;;;5003837;28;20478;-79
2024/02/18 08:36:46;;;;;;;3.63;3.53;;;;;;;;;;5016262;28;20486;-81
2024/02/18 08:39:12;;;;;;;4.17;4.07;;;;;;;;;;5015622;28;20550;-82
2024/02/18 08:41:39;;;;;;;3.00;2.90;;;;;;;;;;5013678;28;20465;-81
2024/02/18 08:44:05;;;;;;;3.37;3.27;;;;;;;;;;5016676;28;20526;-80
2024/02/18 08:46:33;;;;;;;4.07;3.97;;;;;;;;;;5019987;28;20485;-82
2024/02/18 08:48:59;;;;;;;4.00;3.90;;;;;;;;;;5016273;28;20514;-81
2024/02/18 08:51:26;;;;;;;3.70;3.60;;;;;;;;;;5018223;28;20582;-81
2024/02/18 08:53:53;;;;;;;3.33;3.23;;;;;;;;;;5017863;28;20439;-83
2024/02/18 08:56:19;;;;;;;3.47;3.37;;;;;;;;;;5017877;28;20477;-83
2024/02/18 08:58:45;;;;;;;3.23;3.13;;;;;;;;;;5015844;28;20540;-80
2024/02/18 09:01:12;;;;;;;3.23;3.13;;;;;;;;;;5023424;28;20450;-83
2024/02/18 09:03:39;;;;;;;3.23;3.13;;;;;;;;;;5027542;28;20488;-83
2024/02/18 09:06:06;;;;;;;3.70;3.60;;;;;;;;;;5026946;28;20515;-83
2024/02/18 09:08:33;;;;;;;3.40;3.30;;;;;;;;;;5026310;28;20465;-83
2024/02/18 09:10:59;;;;;;;3.27;3.17;;;;;;;;;;5021236;28;20566;-84
2024/02/18 09:13:25;;;;;;;3.33;3.23;;;;;;;;;;5018708;28;20479;-85
2024/02/18 09:15:52;;;;;;;3.20;3.10;;;;;;;;;;5019665;28;20533;-86
2024/02/18 09:18:18;;;;;;;3.40;3.30;;;;;;;;;;5011130;28;21034;-86
2024/02/18 09:20:46;;;;;;;3.40;3.30;;;;;;;;;;5018201;28;20459;-81
2024/02/18 09:23:13;;;;;;;3.33;3.23;;;;;;;;;;5021924;28;20442;-85
2024/02/18 09:25:39;;;;;;;3.47;3.37;;;;;;;;;;5019460;28;20570;-83
2024/02/18 09:28:08;;;;;;;3.20;3.10;;;;;;;;;;5019279;28;20501;-83
2024/02/18 09:30:35;;;;;;;2.90;2.80;;;;;;;;;;5020868;28;21074;-83
2024/02/18 09:33:01;;;;;;;3.17;3.07;;;;;;;;;;5017579;28;20495;-83
2024/02/18 09:35:28;;;;;;;2.90;2.80;;;;;;;;;;5016350;28;21126;-84
2024/02/18 09:37:56;;;;;;;3.10;3.00;;;;;;;;;;5021423;28;21251;-79
2024/02/18 09:40:23;;;;;;;2.80;2.70;;;;;;;;;;5022461;28;20446;-79
2024/02/18 09:42:50;;;;;;;4.73;4.43;;;;;;;;;;5021332;28;20473;-79
2024/02/18 09:45:17;;;;;;;3.47;3.37;;;;;;;;;;5022853;28;20450;-82
2024/02/18 09:47:44;;;;;;;3.50;3.40;;;;;;;;;;5020809;28;20573;-82
2024/02/18 09:50:11;;;;;;;3.67;3.57;;;;;;;;;;5020311;28;20533;-82
2024/02/18 09:52:39;;;;;;;3.23;3.13;;;;;;;;;;5012298;28;20459;-82
2024/02/18 09:55:08;;;;;;;3.37;3.27;;;;;;;;;;5021939;28;21094;-82
2024/02/18 09:57:34;;;;;;;3.13;3.03;;;;;;;;;;5022022;28;20546;-82
2024/02/18 10:00:01;;;;;;;2.93;2.83;;;;;;;;;;5022613;28;20541;-78
2024/02/18 10:02:28;;;;;;;3.77;3.67;;;;;;;;;;5026063;28;20550;-80
2024/02/18 10:04:54;;;;;;;3.17;3.07;;;;;;;;;;5027761;28;20442;-80
2024/02/18 10:07:21;;;;;;;3.20;3.10;;;;;;;;;;5029392;28;20485;-80
2024/02/18 10:09:47;;;;;;;3.80;3.70;;;;;;;;;;5017208;28;20541;-80
2024/02/18 10:12:16;;;;;;;2.90;2.80;;;;;;;;;;5026854;28;20520;-80
2024/02/18 10:14:43;;;;;;;3.07;2.97;;;;;;;;;;5026316;28;20466;-80
2024/02/18 10:17:09;;;;;;;3.10;3.00;;;;;;;;;;5024209;28;20478;-80
2024/02/18 10:19:35;;;;;;;2.70;2.60;;;;;;;;;;5023266;28;20524;-79
2024/02/18 10:22:02;;;;;;;2.37;2.27;;;;;;;;;;5025309;28;20487;-81
2024/02/18 10:24:28;;;;;;;2.43;2.33;;;;;;;;;;5023923;28;20442;-80
2024/02/18 10:26:55;;;;;;;1.80;1.70;;;;;;;;;;5020932;28;20462;-82
2024/02/18 10:29:24;;;;;;;2.30;2.20;;;;;;;;;;5027218;28;20489;-81
2024/02/18 10:31:50;;;;;;;3.00;2.90;;;;;;;;;;5021224;28;20840;-80
2024/02/18 10:34:18;;;;;;;2.40;2.30;;;;;;;;;;5023650;28;20471;-81
2024/02/18 10:36:47;;;;;;;2.93;2.83;;;;;;;;;;5020066;28;20459;-79
2024/02/18 10:39:15;;;;;;;2.70;2.60;;;;;;;;;;5021463;28;20450;-80
2024/02/18 10:41:46;;;;;;;2.50;2.40;;;;;;;;;;5023130;28;20447;-81
2024/02/18 10:44:16;;;;;;;2.50;2.40;;;;;;;;;;5021496;28;20439;-80
2024/02/18 10:46:45;;;;;;;2.40;2.30;;;;;;;;;;5022353;28;20534;-86
2024/02/18 10:49:13;;;;;;;2.30;2.20;;;;;;;;;;5021479;28;20446;-87
2024/02/18 10:51:40;;;;;;;2.10;2.00;;;;;;;;;;5025823;28;20490;-87
2024/02/18 10:54:11;;;;;;;2.10;2.00;;;;;;;;;;5022127;28;20449;-88
2024/02/18 10:56:40;;;;;;;1.90;1.80;;;;;;;;;;5022736;28;20454;-83
2024/02/18 10:59:08;;;;;;;1.60;1.60;;;;;;;;;;5026551;28;20548;-87
2024/02/18 11:01:40;;;;;;;1.60;1.60;;;;;;;;;;5018572;28;20478;-88
2024/02/18 11:04:09;;;;;;;1.73;1.70;;;;;;;;;;5024002;28;20446;-85
2024/02/18 11:06:36;;;;;;;1.50;1.50;;;;;;;;;;5009242;28;20471;-91
2024/02/18 11:09:02;;;;;;;1.60;1.60;;;;;;;;;;5024953;28;20477;-88
2024/02/18 11:11:29;;;;;;;1.40;1.40;;;;;;;;;;5022562;28;20486;-89
2024/02/18 11:13:56;;;;;;;11.27;10.10;;;;;;;;;;5021847;28;20485;-86
2024/02/18 11:16:23;;;;;;;1.43;1.43;;;;;;;;;;5021197;28;20487;-86
2024/02/18 11:18:50;;;;;;;1.40;1.40;;;;;;;;;;5021636;28;20896;-88
2024/02/18 11:21:18;;;;;;;1.37;1.37;;;;;;;;;;5021775;28;20605;-86
2024/02/18 11:23:48;;;;;;;1.47;1.47;;;;;;;;;;5030883;28;20450;-85
2024/02/18 11:26:14;;;;;;;1.20;1.20;;;;;;;;;;5030604;28;20481;-87
2024/02/18 11:28:40;;;;;;;1.40;1.40;;;;;;;;;;5025164;28;20450;-89
2024/02/18 11:31:08;;;;;;;1.47;1.47;;;;;;;;;;5024470;28;20493;-84
2024/02/18 11:33:34;;;;;;;1.40;1.40;;;;;;;;;;5021950;28;20453;-86
2024/02/18 11:36:10;;;;;;;3.73;3.63;;;;;;;;;;5026324;28;20554;-88
2024/02/18 11:38:44;;;;;;;1.20;1.20;;;;;;;;;;5028607;28;20507;-86
2024/02/18 11:41:16;;;;;;;1.30;1.30;;;;;;;;;;5019918;28;20461;-86
2024/02/18 11:43:42;;;;;;;1.50;1.50;;;;;;;;;;5021492;28;20588;-86
2024/02/18 11:46:17;;;;;;;1.20;1.20;;;;;;;;;;5020905;28;20505;-87
2024/02/18 11:48:44;;;;;;;1.40;1.40;;;;;;;;;;5025818;28;20453;-88
2024/02/18 11:51:10;;;;;;;1.40;1.40;;;;;;;;;;5028735;28;20494;-87
2024/02/18 11:53:37;;;;;;;1.13;1.13;;;;;;;;;;5025555;28;20512;-85
2024/02/18 11:56:05;;;;;;;1.40;1.40;;;;;;;;;;5025664;28;20947;-87
2024/02/18 11:58:32;;;;;;;1.20;1.20;;;;;;;;;;5020259;28;20478;-88
2024/02/18 12:01:01;;;;;;;1.20;1.20;;;;;;;;;;5022249;28;20451;-88
2024/02/18 12:03:28;;;;;;;1.00;1.00;;;;;;;;;;5016965;28;20557;-89
2024/02/18 12:05:55;;;;;;;1.30;1.30;;;;;;;;;;5019810;28;20451;-86
2024/02/18 12:08:22;;;;;;;1.23;1.23;;;;;;;;;;5016959;28;20486;-88
2024/02/18 12:10:48;;;;;;;1.00;1.00;;;;;;;;;;5016167;28;20609;-87
2024/02/18 12:13:16;;;;;;;1.30;1.30;;;;;;;;;;5027259;28;20454;-90
2024/02/18 12:15:45;;;;;;;1.10;1.10;;;;;;;;;;5019148;28;20490;-89
2024/02/18 12:18:12;;;;;;;1.37;1.37;;;;;;;;;;5018481;28;20451;-90
2024/02/18 12:20:39;;;;;;;1.10;1.10;;;;;;;;;;5017194;28;20435;-87
2024/02/18 12:23:06;;;;;;;1.00;1.00;;;;;;;;;;5020762;28;20482;-86
2024/02/18 12:25:36;;;;;;;1.00;1.00;;;;;;;;;;5026402;28;20451;-88
2024/02/18 12:28:03;;;;;;;1.00;1.00;;;;;;;;;;5023851;28;20550;-86
2024/02/18 12:30:31;;;;;;;1.10;1.10;;;;;;;;;;5027000;28;20450;-89
2024/02/18 12:32:57;;;;;;;1.10;1.10;;;;;;;;;;5018743;28;21176;-90
2024/02/18 12:35:24;;;;;;;1.20;1.20;;;;;;;;;;5012780;28;20542;-81
2024/02/18 12:37:50;;;;;;;1.00;1.00;;;;;;;;;;5010847;28;20471;-86
2024/02/18 12:40:17;;;;;;;1.10;1.10;;;;;;;;;;5015632;28;20538;-86
2024/02/18 12:42:43;;;;;;;1.00;1.00;;;;;;;;;;5020458;28;20470;-86
2024/02/18 12:45:19;;;;;;;1.20;1.20;;;;;;;;;;5019407;28;20466;-87
2024/02/18 12:47:47;;;;;;;1.30;1.30;;;;;;;;;;5018058;28;20457;-89
2024/02/18 12:50:14;;;;;;;1.23;1.23;;;;;;;;;;5020254;28;20518;-85
2024/02/18 12:52:40;;;;;;;1.73;1.63;;;;;;;;;;5022964;28;20518;-86
2024/02/18 12:55:07;;;;;;;1.10;1.10;;;;;;;;;;5011437;28;20576;-86
2024/02/18 12:57:34;;;;;;;1.10;1.10;;;;;;;;;;5017635;28;20557;-86
2024/02/18 13:00:01;;;;;;;1.10;1.10;;;;;;;;;;5024584;28;20511;-88
2024/02/18 13:02:27;;;;;;;1.10;1.10;;;;;;;;;;5029016;28;20446;-90
2024/02/18 13:04:56;;;;;;;1.00;1.00;;;;;;;;;;5019381;28;20468;-85
2024/02/18 13:07:23;;;;;;;1.03;1.03;;;;;;;;;;5014978;28;20497;-81
2024/02/18 13:09:49;;;;;;;1.90;1.80;;;;;;;;;;5019330;28;20451;-80
2024/02/18 13:12:16;;;;;;;1.27;1.27;;;;;;;;;;5019779;28;20558;-79
2024/02/18 13:14:43;;;;;;;1.50;1.50;;;;;;;;;;5021385;28;20458;-81
2024/02/18 13:17:10;;;;;;;1.20;1.20;;;;;;;;;;5025347;28;20524;-81
2024/02/18 13:19:42;;;;;;;1.10;1.10;;;;;;;;;;5023724;28;20497;-81
2024/02/18 13:22:10;;;;;;;1.20;1.20;;;;;;;;;;5018783;28;20466;-81
2024/02/18 13:24:36;;;;;;;1.60;1.60;;;;;;;;;;5019222;28;20493;-81
2024/02/18 13:27:03;;;;;;;1.67;1.60;;;;;;;;;;5014919;28;20460;-80
2024/02/18 13:29:30;;;;;;;1.10;1.10;;;;;;;;;;5015886;28;21283;-80
2024/02/18 13:31:56;;;;;;;1.00;1.00;;;;;;;;;;5010691;28;20562;-79
2024/02/18 13:34:25;;;;;;;1.20;1.20;;;;;;;;;;5019386;28;20458;-80
2024/02/18 13:36:51;;;;;;;1.10;1.10;;;;;;;;;;5019931;28;20467;-80
2024/02/18 13:39:19;;;;;;;1.27;1.27;;;;;;;;;;5017243;28;20490;-80
2024/02/18 13:41:45;;;;;;;1.73;1.73;;;;;;;;;;5019651;28;20486;-80
2024/02/18 13:44:12;;;;;;;1.53;1.43;;;;;;;;;;5024742;28;20490;-79
2024/02/18 13:46:41;;;;;;;4.97;4.60;;;;;;;;;;5018677;28;20462;-80
2024/02/18 13:49:07;;;;;;;2.20;2.10;;;;;;;;;;5019312;28;20450;-80
2024/02/18 13:51:34;;;;;;;1.70;1.70;;;;;;;;;;5017817;28;20609;-80
2024/02/18 13:54:00;;;;;;;1.60;1.60;;;;;;;;;;5019401;28;20531;-81
2024/02/18 13:56:28;;;;;;;1.80;1.80;;;;;;;;;;5023310;28;20482;-80
2024/02/18 13:58:54;;;;;;;1.90;1.80;;;;;;;;;;5018495;28;20458;-80
2024/02/18 14:01:21;;;;;;;1.60;1.60;;;;;;;;;;5024289;28;20489;-79
2024/02/18 14:03:49;;;;;;;2.00;1.90;;;;;;;;;;5020046;28;20913;-80
2024/02/18 14:06:15;;;;;;;1.60;1.60;;;;;;;;;;5015437;28;20473;-79
2024/02/18 14:08:42;;;;;;;1.40;1.40;;;;;;;;;;5016315;28;20479;-79
2024/02/18 14:11:08;;;;;;;1.70;1.70;;;;;;;;;;5020158;28;20455;-79
2024/02/18 14:13:36;;;;;;;1.60;1.60;;;;;;;;;;5021122;28;20482;-79
2024/02/18 14:16:02;;;;;;;1.90;1.80;;;;;;;;;;5018344;28;20505;-79
2024/02/18 14:18:29;;;;;;;1.97;1.87;;;;;;;;;;5017314;28;20510;-78
2024/02/18 14:20:55;;;;;;;2.80;2.70;;;;;;;;;;5015340;28;20505;-79
2024/02/18 14:23:21;;;;;;;2.53;2.43;;;;;;;;;;5017071;28;20912;-79
2024/02/18 14:25:48;;;;;;;2.03;1.93;;;;;;;;;;5020403;28;20522;-80
2024/02/18 14:28:14;;;;;;;1.97;1.90;;;;;;;;;;5023616;28;20461;-80
2024/02/18 14:30:42;;;;;;;2.03;1.93;;;;;;;;;;5020381;28;20494;-79
2024/02/18 14:33:08;;;;;;;1.80;1.80;;;;;;;;;;5022531;28;20544;-80
2024/02/18 14:35:35;;;;;;;2.77;2.67;;;;;;;;;;5027655;28;20472;-80
2024/02/18 14:38:04;;;;;;;1.90;1.80;;;;;;;;;;5015854;28;20462;-79
2024/02/18 14:40:30;;;;;;;1.50;1.50;;;;;;;;;;5020219;28;20546;-79